Planet Ace — 3EYF9 — position and weather

sailwx.info

Track history (hours):
 
Tides and Currents Weather Stations Pressure Air Temp Water Temp Dewpoint Dewpoint Depression Visibility Wind Speed Wind Dir Waves Ship Positions

Planet Ace

Last reported at 2014-Dec-19 08:33 UTC. Time now 2014-Dec-19 08:40 UTC.
Position N 38°28' W 010°02'.

Length 188 m; beam 28.2 m.

Type: Cargo ship. MMSI: 352168000.

Date/timePositionNaut miles runAvg speedWind from/ knotsBaromVisibWave heightAir tempDewpointWater temp
2014-Dec-19 08:33N 38°28' W 010°02'1615.3
2014-Dec-19 07:30N 38°43' W 010°06'1616.2
2014-Dec-19 06:33N 38°59' W 010°07'34312.1
2014-Dec-18 02:09N 43°48' W 006°01'1114.4
2014-Dec-18 01:22N 43°47' W 005°46'1214.5
2014-Dec-18 00:33N 43°45' W 005°30'390 8.8
2014-Dec-16 04:23N 50°07' W 003°31'1214.0
2014-Dec-16 03:32N 50°18' W 003°25'8 8.1
2014-Dec-16 02:32N 50°25' W 003°18'1515.0
2014-Dec-16 01:33N 50°25' W 002°55'4414.7
2014-Dec-15 22:32N 50°25' W 001°46'1816.2
2014-Dec-15 21:26N 50°25' W 001°18'1716.6
2014-Dec-15 20:25N 50°27' W 000°52'1416.4
2014-Dec-15 19:34N 50°29' W 000°30'1716.0
2014-Dec-15 18:31N 50°32' W 000°04'1515.4
2014-Dec-15 17:33N 50°35' E 000°19'1514.6
2014-Dec-15 16:34N 50°40' E 000°40'1514.6
2014-Dec-15 15:33N 50°49' E 000°58'1514.8
2014-Dec-15 14:33N 50°59' E 001°17'1616.0
2014-Dec-15 13:34N 51°09' E 001°36'1716.5
2014-Dec-15 12:33N 51°25' E 001°44'1515.4
2014-Dec-15 11:34N 51°40' E 001°45'1514.7
2014-Dec-15 10:33N 51°55' E 001°45'1514.9
2014-Dec-15 09:34N 52°09' E 001°49'1515.0
2014-Dec-15 08:33N 52°23' E 001°58'1514.8
2014-Dec-15 07:34N 52°37' E 002°05'1514.6
2014-Dec-15 06:33N 52°49' E 001°50'1616.0
2014-Dec-15 05:33N 52°60' E 001°31'1716.7
2014-Dec-15 04:33N 53°14' E 001°15'2416.5
2014-Dec-15 03:06N 53°35' E 000°55'916.7
2014-Dec-15 02:32N 53°42' E 000°45'1616.9
2014-Dec-15 01:34N 53°55' E 000°27'1717.4
2014-Dec-15 00:33N 54°08' E 000°08'1717.4
2014-Dec-14 23:34N 54°21' W 000°11'1817.9
2014-Dec-14 22:33N 54°35' W 000°31'1818.1
2014-Dec-14 21:33N 54°48' W 000°54'1817.7
2014-Dec-14 20:33N 54°60' W 001°16'7 0.2
2014-Dec-13 07:25N 54°59' W 001°28'7 0.4
2014-Dec-12 13:18N 55°03' W 001°18'6 7.0
2014-Dec-12 12:30N 55°05' W 001°09'2 1.5
2014-Dec-12 11:32N 55°06' W 001°12'2 1.9
2014-Dec-12 10:33N 55°04' W 001°13'1312.4
2014-Dec-12 09:29N 54°58' W 000°52'9 9.9
2014-Dec-12 08:34N 54°54' W 000°38'2 2.4
2014-Dec-12 07:33N 54°57' W 000°38'1510.7
2014-Dec-12 06:08N 54°60' W 001°04'1423.5
2014-Dec-12 05:32N 54°60' W 000°39'1 0.8
2014-Dec-12 04:32N 55°00' W 000°40'1 0.9
2014-Dec-12 03:33N 55°01' W 000°41'1 1.2
2014-Dec-12 02:30N 55°01' W 000°43'1 1.6
2014-Dec-12 01:33N 55°01' W 000°46'2 1.8
2014-Dec-12 00:32N 55°00' W 000°49'2 1.9
2014-Dec-11 23:33N 55°00' W 000°52'2 1.9
2014-Dec-11 22:33N 55°00' W 000°56'2 2.0
2014-Dec-11 21:30N 55°01' W 000°59'2 2.5
2014-Dec-11 20:32N 55°02' W 001°03'3 2.9
2014-Dec-11 19:30N 55°04' W 001°07'2 2.1
2014-Dec-11 18:33N 55°03' W 001°10'7 7.4
2014-Dec-11 17:33N 54°58' W 001°02'1312.8
2014-Dec-11 16:33N 54°49' W 000°45'0 0.1
2014-Dec-11 15:33N 54°49' W 000°45'4 3.8
2014-Dec-11 14:33N 54°52' W 000°49'3 3.4
2014-Dec-11 13:33N 54°54' W 000°53'3 2.8
2014-Dec-11 12:33N 54°56' W 000°56'3 2.6
2014-Dec-11 11:32N 54°58' W 000°60'3 2.8
2014-Dec-11 10:30N 54°60' W 001°04'3 2.7
2014-Dec-11 09:33N 54°58' W 001°07'1010.1
2014-Dec-11 08:33N 54°52' W 000°53'9 1.1
2014-Dec-11 00:29N 54°58' W 001°04'2 2.1
2014-Dec-10 23:33N 54°59' W 001°06'2 2.2
2014-Dec-10 22:33N 54°58' W 001°09'5 5.1
2014-Dec-10 21:33N 54°53' W 001°04'1414.0
2014-Dec-10 20:33N 54°44' W 000°46'1313.6
2014-Dec-10 19:33N 54°34' W 000°29'1313.5
2014-Dec-10 18:33N 54°24' W 000°14'1313.1
2014-Dec-10 17:33N 54°14' E 000°00'1313.4
2014-Dec-10 16:33N 54°04' E 000°15'1313.0
2014-Dec-10 15:33N 53°54' E 000°29'1413.8
2014-Dec-10 14:33N 53°43' E 000°45'3315.6
2014-Dec-10 12:26N 53°16' E 001°16'1214.2
2014-Dec-10 11:33N 53°05' E 001°25'1312.9
2014-Dec-10 10:33N 52°55' E 001°39'1212.0
2014-Dec-10 09:33N 52°48' E 001°55'1111.5
2014-Dec-10 08:34N 52°38' E 002°05'1513.3
2014-Dec-10 07:27N 52°24' E 002°12'3014.3
2014-Dec-10 05:22N 51°56' E 002°28'1112.9
2014-Dec-10 04:32N 51°46' E 002°35'1212.4
2014-Dec-10 03:33N 51°35' E 002°42'1312.2
2014-Dec-10 02:29N 51°22' E 002°47'1111.4
2014-Dec-10 01:33N 51°25' E 003°04'7 6.7
2014-Dec-10 00:27N 51°20' E 003°13'1 1.1
2014-Dec-09 23:33N 51°19' E 003°13'0 0.5
2014-Dec-09 22:33N 51°19' E 003°13'0 0.0
2014-Dec-09 21:21N 51°19' E 003°13'0 0.0
2014-Dec-09 20:30N 51°19' E 003°13'0 0.0
2014-Dec-09 19:33N 51°19' E 003°13'0 0.0
2014-Dec-09 18:24N 51°19' E 003°13'0 0.0
2014-Dec-09 17:30N 51°19' E 003°13'0 0.0
2014-Dec-09 16:21N 51°19' E 003°13'0 0.0
2014-Dec-09 15:30N 51°19' E 003°13'0 0.0
2014-Dec-09 14:33N 51°19' E 003°13'0 0.0
2014-Dec-09 13:33N 51°19' E 003°13'0 0.0
2014-Dec-09 12:30N 51°19' E 003°13'0 0.0
2014-Dec-09 11:33N 51°19' E 003°13'0 0.0
2014-Dec-09 10:33N 51°19' E 003°13'0 0.0
2014-Dec-09 09:33N 51°19' E 003°13'  
Track history (hours):
 
Tides and Currents Weather Stations Pressure Air Temp Water Temp Dewpoint Dewpoint Depression Visibility Wind Speed Wind Dir Waves Ship Positions

Planet Ace

Last reported at 2014-Dec-19 08:33 UTC. Time now 2014-Dec-19 08:40 UTC.
Position N 38°28' W 010°02'.

Length 188 m; beam 28.2 m.

Type: Cargo ship. MMSI: 352168000.

Date/timePositionNaut miles runAvg speedWind from/ knotsBaromVisibWave heightAir tempDewpointWater temp
2014-Dec-19 08:33N 38°28' W 010°02'1615.3
2014-Dec-19 07:30N 38°43' W 010°06'1616.2
2014-Dec-19 06:33N 38°59' W 010°07'34312.1
2014-Dec-18 02:09N 43°48' W 006°01'1114.4
2014-Dec-18 01:22N 43°47' W 005°46'1214.5
2014-Dec-18 00:33N 43°45' W 005°30'390 8.8
2014-Dec-16 04:23N 50°07' W 003°31'1214.0
2014-Dec-16 03:32N 50°18' W 003°25'8 8.1
2014-Dec-16 02:32N 50°25' W 003°18'1515.0
2014-Dec-16 01:33N 50°25' W 002°55'4414.7
2014-Dec-15 22:32N 50°25' W 001°46'1816.2
2014-Dec-15 21:26N 50°25' W 001°18'1716.6
2014-Dec-15 20:25N 50°27' W 000°52'1416.4
2014-Dec-15 19:34N 50°29' W 000°30'1716.0
2014-Dec-15 18:31N 50°32' W 000°04'1515.4
2014-Dec-15 17:33N 50°35' E 000°19'1514.6
2014-Dec-15 16:34N 50°40' E 000°40'1514.6
2014-Dec-15 15:33N 50°49' E 000°58'1514.8
2014-Dec-15 14:33N 50°59' E 001°17'1616.0
2014-Dec-15 13:34N 51°09' E 001°36'1716.5
2014-Dec-15 12:33N 51°25' E 001°44'1515.4
2014-Dec-15 11:34N 51°40' E 001°45'1514.7
2014-Dec-15 10:33N 51°55' E 001°45'1514.9
2014-Dec-15 09:34N 52°09' E 001°49'1515.0
2014-Dec-15 08:33N 52°23' E 001°58'1514.8
2014-Dec-15 07:34N 52°37' E 002°05'1514.6
2014-Dec-15 06:33N 52°49' E 001°50'1616.0
2014-Dec-15 05:33N 52°60' E 001°31'1716.7
2014-Dec-15 04:33N 53°14' E 001°15'2416.5
2014-Dec-15 03:06N 53°35' E 000°55'916.7
2014-Dec-15 02:32N 53°42' E 000°45'1616.9
2014-Dec-15 01:34N 53°55' E 000°27'1717.4
2014-Dec-15 00:33N 54°08' E 000°08'1717.4
2014-Dec-14 23:34N 54°21' W 000°11'1817.9
2014-Dec-14 22:33N 54°35' W 000°31'1818.1
2014-Dec-14 21:33N 54°48' W 000°54'1817.7
2014-Dec-14 20:33N 54°60' W 001°16'7 0.2
2014-Dec-13 07:25N 54°59' W 001°28'7 0.4
2014-Dec-12 13:18N 55°03' W 001°18'6 7.0
2014-Dec-12 12:30N 55°05' W 001°09'2 1.5
2014-Dec-12 11:32N 55°06' W 001°12'2 1.9
2014-Dec-12 10:33N 55°04' W 001°13'1312.4
2014-Dec-12 09:29N 54°58' W 000°52'9 9.9
2014-Dec-12 08:34N 54°54' W 000°38'2 2.4
2014-Dec-12 07:33N 54°57' W 000°38'1510.7
2014-Dec-12 06:08N 54°60' W 001°04'1423.5
2014-Dec-12 05:32N 54°60' W 000°39'1 0.8
2014-Dec-12 04:32N 55°00' W 000°40'1 0.9
2014-Dec-12 03:33N 55°01' W 000°41'1 1.2
2014-Dec-12 02:30N 55°01' W 000°43'1 1.6
2014-Dec-12 01:33N 55°01' W 000°46'2 1.8
2014-Dec-12 00:32N 55°00' W 000°49'2 1.9
2014-Dec-11 23:33N 55°00' W 000°52'2 1.9
2014-Dec-11 22:33N 55°00' W 000°56'2 2.0
2014-Dec-11 21:30N 55°01' W 000°59'2 2.5
2014-Dec-11 20:32N 55°02' W 001°03'3 2.9
2014-Dec-11 19:30N 55°04' W 001°07'2 2.1
2014-Dec-11 18:33N 55°03' W 001°10'7 7.4
2014-Dec-11 17:33N 54°58' W 001°02'1312.8
2014-Dec-11 16:33N 54°49' W 000°45'0 0.1
2014-Dec-11 15:33N 54°49' W 000°45'4 3.8
2014-Dec-11 14:33N 54°52' W 000°49'3 3.4
2014-Dec-11 13:33N 54°54' W 000°53'3 2.8
2014-Dec-11 12:33N 54°56' W 000°56'3 2.6
2014-Dec-11 11:32N 54°58' W 000°60'3 2.8
2014-Dec-11 10:30N 54°60' W 001°04'3 2.7
2014-Dec-11 09:33N 54°58' W 001°07'1010.1
2014-Dec-11 08:33N 54°52' W 000°53'9 1.1
2014-Dec-11 00:29N 54°58' W 001°04'2 2.1
2014-Dec-10 23:33N 54°59' W 001°06'2 2.2
2014-Dec-10 22:33N 54°58' W 001°09'5 5.1
2014-Dec-10 21:33N 54°53' W 001°04'1414.0
2014-Dec-10 20:33N 54°44' W 000°46'1313.6
2014-Dec-10 19:33N 54°34' W 000°29'1313.5
2014-Dec-10 18:33N 54°24' W 000°14'1313.1
2014-Dec-10 17:33N 54°14' E 000°00'1313.4
2014-Dec-10 16:33N 54°04' E 000°15'1313.0
2014-Dec-10 15:33N 53°54' E 000°29'1413.8
2014-Dec-10 14:33N 53°43' E 000°45'3315.6
2014-Dec-10 12:26N 53°16' E 001°16'1214.2
2014-Dec-10 11:33N 53°05' E 001°25'1312.9
2014-Dec-10 10:33N 52°55' E 001°39'1212.0
2014-Dec-10 09:33N 52°48' E 001°55'1111.5
2014-Dec-10 08:34N 52°38' E 002°05'1513.3
2014-Dec-10 07:27N 52°24' E 002°12'3014.3
2014-Dec-10 05:22N 51°56' E 002°28'1112.9
2014-Dec-10 04:32N 51°46' E 002°35'1212.4
2014-Dec-10 03:33N 51°35' E 002°42'1312.2
2014-Dec-10 02:29N 51°22' E 002°47'1111.4
2014-Dec-10 01:33N 51°25' E 003°04'7 6.7
2014-Dec-10 00:27N 51°20' E 003°13'1 1.1
2014-Dec-09 23:33N 51°19' E 003°13'0 0.5
2014-Dec-09 22:33N 51°19' E 003°13'0 0.0
2014-Dec-09 21:21N 51°19' E 003°13'0 0.0
2014-Dec-09 20:30N 51°19' E 003°13'0 0.0
2014-Dec-09 19:33N 51°19' E 003°13'0 0.0
2014-Dec-09 18:24N 51°19' E 003°13'0 0.0
2014-Dec-09 17:30N 51°19' E 003°13'0 0.0
2014-Dec-09 16:21N 51°19' E 003°13'0 0.0
2014-Dec-09 15:30N 51°19' E 003°13'0 0.0
2014-Dec-09 14:33N 51°19' E 003°13'0 0.0
2014-Dec-09 13:33N 51°19' E 003°13'0 0.0
2014-Dec-09 12:30N 51°19' E 003°13'0 0.0
2014-Dec-09 11:33N 51°19' E 003°13'0 0.0
2014-Dec-09 10:33N 51°19' E 003°13'0 0.0
2014-Dec-09 09:33N 51°19' E 003°13'  

Dump ship's entire track history